Xin Dan Dong — BPBY — position and weather

sailwx.info

Track history (hours):
 
Tides and Currents Weather Stations Pressure Air Temp Water Temp Dewpoint Dewpoint Depression Visibility Wind Speed Wind Dir Waves Ship Positions

Xin Dan Dong

Last reported at 2016-Jan-22 01:33 UTC. Time now 2016-Feb-10 17:57 UTC.
Position N 25°21' W 079°56'.
Warning: this ship's position is 19 days out of date.

Length 263 m; draft 10.7 m.

Type: Ship (hazmat cat B). MMSI: 413153000.

Date/timePositionNaut miles runAvg speedWind from/ knotsBaromVisibWave heightAir tempDewpointWater temp
2016-Jan-22 01:33N 25°21' W 079°56'1312.8
2016-Jan-22 00:33N 25°33' W 079°60'1414.2
2016-Jan-21 23:33N 25°46' W 080°06'3 3.2
2016-Jan-21 22:32N 25°46' W 080°09'0 0.0
2016-Jan-21 21:32N 25°46' W 080°09'0 0.0
2016-Jan-21 20:32N 25°46' W 080°09'0 0.0
2016-Jan-21 19:32N 25°46' W 080°09'0 0.0
2016-Jan-21 18:32N 25°46' W 080°09'0 0.0
2016-Jan-21 17:32N 25°46' W 080°09'0 0.0
2016-Jan-21 16:32N 25°46' W 080°09'0 0.0
2016-Jan-21 15:32N 25°46' W 080°09'0 0.0
2016-Jan-21 14:32N 25°46' W 080°09'0 0.0
2016-Jan-21 13:32N 25°46' W 080°09'0 0.0
2016-Jan-21 12:33N 25°46' W 080°09'3 3.4
2016-Jan-21 11:33N 25°46' W 080°05'5 4.9
2016-Jan-21 10:33N 25°48' W 080°00'9 8.5
2016-Jan-21 09:33N 25°56' W 080°00'1 0.8
2016-Jan-21 08:33N 25°57' W 079°60'2 2.4
2016-Jan-21 07:33N 25°55' W 079°60'7 7.1
2016-Jan-21 06:33N 26°02' W 079°59'10 9.9
2016-Jan-21 05:33N 26°12' W 079°57'1010.1
2016-Jan-21 04:33N 26°22' W 079°55'1010.0
2016-Jan-21 03:33N 26°31' W 079°53'10 9.9
2016-Jan-21 02:33N 26°41' W 079°52'10 9.9
2016-Jan-21 01:33N 26°51' W 079°51'9 9.4
2016-Jan-21 00:33N 27°00' W 079°52'290 8.5
2016-Jan-19 14:31N 31°48' W 080°30'9 9.8
2016-Jan-19 13:33N 31°56' W 080°37'1110.6
2016-Jan-19 12:33N 32°01' W 080°48'1212.5
2016-Jan-19 11:33N 32°05' W 081°02'6 5.6
2016-Jan-19 10:33N 32°07' W 081°08'0 0.0
2016-Jan-19 09:28N 32°07' W 081°08'0 0.0
2016-Jan-19 08:31N 32°07' W 081°08'0 0.0
2016-Jan-19 07:31N 32°07' W 081°08'0 0.0
2016-Jan-19 06:31N 32°07' W 081°08'0 0.0
2016-Jan-19 05:31N 32°07' W 081°08'0 0.0
2016-Jan-19 04:31N 32°07' W 081°08'0 0.0
2016-Jan-19 03:31N 32°07' W 081°08'0 0.0
2016-Jan-19 02:31N 32°07' W 081°08'0 0.0
2016-Jan-19 01:31N 32°07' W 081°08'0 0.0
2016-Jan-19 00:31N 32°07' W 081°08'0 0.0
2016-Jan-18 23:31N 32°07' W 081°08'0 0.0
2016-Jan-18 22:31N 32°07' W 081°08'0 0.0
2016-Jan-18 21:31N 32°07' W 081°08'1 0.5
2016-Jan-18 20:33N 32°08' W 081°08'6 5.8
2016-Jan-18 19:33N 32°05' W 081°02'1010.5
2016-Jan-18 18:33N 32°02' W 080°50'1212.2
2016-Jan-18 17:33N 31°57' W 080°37'9 8.6
2016-Jan-18 16:33N 31°57' W 080°27'37113.6
2016-Jan-17 13:19N 36°57' W 076°01'1215.1
2016-Jan-17 12:31N 37°00' W 076°16'9 9.2
2016-Jan-17 11:33N 36°52' W 076°20'1 0.7
2016-Jan-17 10:33N 36°51' W 076°20'0 0.0
2016-Jan-17 09:33N 36°51' W 076°20'0 0.0
2016-Jan-17 08:33N 36°51' W 076°20'0 0.0
2016-Jan-17 07:33N 36°51' W 076°20'0 0.0
2016-Jan-17 06:33N 36°51' W 076°20'0 0.0
2016-Jan-17 05:33N 36°51' W 076°20'0 0.0
2016-Jan-17 04:33N 36°51' W 076°20'0 0.0
2016-Jan-17 03:33N 36°51' W 076°20'0 0.0
2016-Jan-17 02:33N 36°51' W 076°20'0 0.0
2016-Jan-17 01:33N 36°51' W 076°20'0 0.0
2016-Jan-17 00:33N 36°51' W 076°20'0 0.0
2016-Jan-16 23:33N 36°51' W 076°20'4 4.1
2016-Jan-16 22:33N 36°55' W 076°20'10 9.0
2016-Jan-16 21:28N 36°59' W 076°09'17110.1
2016-Jan-16 04:33N 39°15' W 073°57'1414.3
2016-Jan-16 03:33N 39°29' W 073°54'1414.0
2016-Jan-16 02:33N 39°43' W 073°52'1414.1
2016-Jan-16 01:33N 39°57' W 073°51'1612.9
2016-Jan-16 00:17N 40°13' W 073°50'7 9.7
2016-Jan-15 23:33N 40°20' W 073°49'8 8.2
2016-Jan-15 22:33N 40°28' W 073°52'1211.7
2016-Jan-15 21:33N 40°36' W 074°03'6 5.6
2016-Jan-15 20:32N 40°40' W 074°09'0 0.1
2016-Jan-15 19:29N 40°40' W 074°09'0 0.0
2016-Jan-15 18:32N 40°40' W 074°09'0 0.0
2016-Jan-15 17:32N 40°40' W 074°09'0 0.0
2016-Jan-15 16:32N 40°40' W 074°09'0 0.0
2016-Jan-15 15:32N 40°40' W 074°09'0 0.0
2016-Jan-15 14:32N 40°40' W 074°09'0 0.0
2016-Jan-15 13:32N 40°40' W 074°09'0 0.0
2016-Jan-15 12:32N 40°40' W 074°09'0 0.0
2016-Jan-15 11:32N 40°40' W 074°09'0 0.0
2016-Jan-15 10:32N 40°40' W 074°09'0 0.0
2016-Jan-15 09:32N 40°40' W 074°09'0 0.0
2016-Jan-15 08:32N 40°40' W 074°09'0 0.0
2016-Jan-15 07:32N 40°40' W 074°09'0 0.0
2016-Jan-15 06:29N 40°40' W 074°09'0 0.0
2016-Jan-15 05:32N 40°40' W 074°09'0 0.0
2016-Jan-15 04:32N 40°40' W 074°09'0 0.0
2016-Jan-15 03:32N 40°40' W 074°09'0 0.0
2016-Jan-15 02:32N 40°40' W 074°09'0 0.0
2016-Jan-15 01:32N 40°40' W 074°09'0 0.0
2016-Jan-15 00:32N 40°40' W 074°09'0 0.0
2016-Jan-14 23:32N 40°40' W 074°09'0 0.0
2016-Jan-14 22:32N 40°40' W 074°09'0 0.0
2016-Jan-14 21:32N 40°40' W 074°09'0 0.0
2016-Jan-14 20:32N 40°40' W 074°09'0 0.0
2016-Jan-14 19:32N 40°40' W 074°09'0 0.0
2016-Jan-14 18:32N 40°40' W 074°09'0 0.0
2016-Jan-14 17:32N 40°40' W 074°09'0 0.0
2016-Jan-14 16:32N 40°40' W 074°09'0 0.0
2016-Jan-14 15:32N 40°40' W 074°09'0 0.0
2016-Jan-14 14:32N 40°40' W 074°09'0 0.0
2016-Jan-14 13:32N 40°40' W 074°09'0 0.0
2016-Jan-14 12:32N 40°40' W 074°09'0 0.0
2016-Jan-14 11:31N 40°40' W 074°09'1 0.6
2016-Jan-14 10:33N 40°39' W 074°09'5 5.0
2016-Jan-14 09:33N 40°37' W 074°03'1111.4
2016-Jan-14 08:33N 40°29' W 073°53'28 8.6
2016-Jan-14 05:17N 40°01' W 073°43'1013.4
2016-Jan-14 04:33N 39°52' W 073°42'1312.8
2016-Jan-14 03:33N 39°39' W 073°41'  
Track history (hours):
 
Tides and Currents Weather Stations Pressure Air Temp Water Temp Dewpoint Dewpoint Depression Visibility Wind Speed Wind Dir Waves Ship Positions

Xin Dan Dong

Last reported at 2016-Jan-22 01:33 UTC. Time now 2016-Feb-10 17:57 UTC.
Position N 25°21' W 079°56'.
Warning: this ship's position is 19 days out of date.

Length 263 m; draft 10.7 m.

Type: Ship (hazmat cat B). MMSI: 413153000.

Date/timePositionNaut miles runAvg speedWind from/ knotsBaromVisibWave heightAir tempDewpointWater temp
2016-Jan-22 01:33N 25°21' W 079°56'1312.8
2016-Jan-22 00:33N 25°33' W 079°60'1414.2
2016-Jan-21 23:33N 25°46' W 080°06'3 3.2
2016-Jan-21 22:32N 25°46' W 080°09'0 0.0
2016-Jan-21 21:32N 25°46' W 080°09'0 0.0
2016-Jan-21 20:32N 25°46' W 080°09'0 0.0
2016-Jan-21 19:32N 25°46' W 080°09'0 0.0
2016-Jan-21 18:32N 25°46' W 080°09'0 0.0
2016-Jan-21 17:32N 25°46' W 080°09'0 0.0
2016-Jan-21 16:32N 25°46' W 080°09'0 0.0
2016-Jan-21 15:32N 25°46' W 080°09'0 0.0
2016-Jan-21 14:32N 25°46' W 080°09'0 0.0
2016-Jan-21 13:32N 25°46' W 080°09'0 0.0
2016-Jan-21 12:33N 25°46' W 080°09'3 3.4
2016-Jan-21 11:33N 25°46' W 080°05'5 4.9
2016-Jan-21 10:33N 25°48' W 080°00'9 8.5
2016-Jan-21 09:33N 25°56' W 080°00'1 0.8
2016-Jan-21 08:33N 25°57' W 079°60'2 2.4
2016-Jan-21 07:33N 25°55' W 079°60'7 7.1
2016-Jan-21 06:33N 26°02' W 079°59'10 9.9
2016-Jan-21 05:33N 26°12' W 079°57'1010.1
2016-Jan-21 04:33N 26°22' W 079°55'1010.0
2016-Jan-21 03:33N 26°31' W 079°53'10 9.9
2016-Jan-21 02:33N 26°41' W 079°52'10 9.9
2016-Jan-21 01:33N 26°51' W 079°51'9 9.4
2016-Jan-21 00:33N 27°00' W 079°52'290 8.5
2016-Jan-19 14:31N 31°48' W 080°30'9 9.8
2016-Jan-19 13:33N 31°56' W 080°37'1110.6
2016-Jan-19 12:33N 32°01' W 080°48'1212.5
2016-Jan-19 11:33N 32°05' W 081°02'6 5.6
2016-Jan-19 10:33N 32°07' W 081°08'0 0.0
2016-Jan-19 09:28N 32°07' W 081°08'0 0.0
2016-Jan-19 08:31N 32°07' W 081°08'0 0.0
2016-Jan-19 07:31N 32°07' W 081°08'0 0.0
2016-Jan-19 06:31N 32°07' W 081°08'0 0.0
2016-Jan-19 05:31N 32°07' W 081°08'0 0.0
2016-Jan-19 04:31N 32°07' W 081°08'0 0.0
2016-Jan-19 03:31N 32°07' W 081°08'0 0.0
2016-Jan-19 02:31N 32°07' W 081°08'0 0.0
2016-Jan-19 01:31N 32°07' W 081°08'0 0.0
2016-Jan-19 00:31N 32°07' W 081°08'0 0.0
2016-Jan-18 23:31N 32°07' W 081°08'0 0.0
2016-Jan-18 22:31N 32°07' W 081°08'0 0.0
2016-Jan-18 21:31N 32°07' W 081°08'1 0.5
2016-Jan-18 20:33N 32°08' W 081°08'6 5.8
2016-Jan-18 19:33N 32°05' W 081°02'1010.5
2016-Jan-18 18:33N 32°02' W 080°50'1212.2
2016-Jan-18 17:33N 31°57' W 080°37'9 8.6
2016-Jan-18 16:33N 31°57' W 080°27'37113.6
2016-Jan-17 13:19N 36°57' W 076°01'1215.1
2016-Jan-17 12:31N 37°00' W 076°16'9 9.2
2016-Jan-17 11:33N 36°52' W 076°20'1 0.7
2016-Jan-17 10:33N 36°51' W 076°20'0 0.0
2016-Jan-17 09:33N 36°51' W 076°20'0 0.0
2016-Jan-17 08:33N 36°51' W 076°20'0 0.0
2016-Jan-17 07:33N 36°51' W 076°20'0 0.0
2016-Jan-17 06:33N 36°51' W 076°20'0 0.0
2016-Jan-17 05:33N 36°51' W 076°20'0 0.0
2016-Jan-17 04:33N 36°51' W 076°20'0 0.0
2016-Jan-17 03:33N 36°51' W 076°20'0 0.0
2016-Jan-17 02:33N 36°51' W 076°20'0 0.0
2016-Jan-17 01:33N 36°51' W 076°20'0 0.0
2016-Jan-17 00:33N 36°51' W 076°20'0 0.0
2016-Jan-16 23:33N 36°51' W 076°20'4 4.1
2016-Jan-16 22:33N 36°55' W 076°20'10 9.0
2016-Jan-16 21:28N 36°59' W 076°09'17110.1
2016-Jan-16 04:33N 39°15' W 073°57'1414.3
2016-Jan-16 03:33N 39°29' W 073°54'1414.0
2016-Jan-16 02:33N 39°43' W 073°52'1414.1
2016-Jan-16 01:33N 39°57' W 073°51'1612.9
2016-Jan-16 00:17N 40°13' W 073°50'7 9.7
2016-Jan-15 23:33N 40°20' W 073°49'8 8.2
2016-Jan-15 22:33N 40°28' W 073°52'1211.7
2016-Jan-15 21:33N 40°36' W 074°03'6 5.6
2016-Jan-15 20:32N 40°40' W 074°09'0 0.1
2016-Jan-15 19:29N 40°40' W 074°09'0 0.0
2016-Jan-15 18:32N 40°40' W 074°09'0 0.0
2016-Jan-15 17:32N 40°40' W 074°09'0 0.0
2016-Jan-15 16:32N 40°40' W 074°09'0 0.0
2016-Jan-15 15:32N 40°40' W 074°09'0 0.0
2016-Jan-15 14:32N 40°40' W 074°09'0 0.0
2016-Jan-15 13:32N 40°40' W 074°09'0 0.0
2016-Jan-15 12:32N 40°40' W 074°09'0 0.0
2016-Jan-15 11:32N 40°40' W 074°09'0 0.0
2016-Jan-15 10:32N 40°40' W 074°09'0 0.0
2016-Jan-15 09:32N 40°40' W 074°09'0 0.0
2016-Jan-15 08:32N 40°40' W 074°09'0 0.0
2016-Jan-15 07:32N 40°40' W 074°09'0 0.0
2016-Jan-15 06:29N 40°40' W 074°09'0 0.0
2016-Jan-15 05:32N 40°40' W 074°09'0 0.0
2016-Jan-15 04:32N 40°40' W 074°09'0 0.0
2016-Jan-15 03:32N 40°40' W 074°09'0 0.0
2016-Jan-15 02:32N 40°40' W 074°09'0 0.0
2016-Jan-15 01:32N 40°40' W 074°09'0 0.0
2016-Jan-15 00:32N 40°40' W 074°09'0 0.0
2016-Jan-14 23:32N 40°40' W 074°09'0 0.0
2016-Jan-14 22:32N 40°40' W 074°09'0 0.0
2016-Jan-14 21:32N 40°40' W 074°09'0 0.0
2016-Jan-14 20:32N 40°40' W 074°09'0 0.0
2016-Jan-14 19:32N 40°40' W 074°09'0 0.0
2016-Jan-14 18:32N 40°40' W 074°09'0 0.0
2016-Jan-14 17:32N 40°40' W 074°09'0 0.0
2016-Jan-14 16:32N 40°40' W 074°09'0 0.0
2016-Jan-14 15:32N 40°40' W 074°09'0 0.0
2016-Jan-14 14:32N 40°40' W 074°09'0 0.0
2016-Jan-14 13:32N 40°40' W 074°09'0 0.0
2016-Jan-14 12:32N 40°40' W 074°09'0 0.0
2016-Jan-14 11:31N 40°40' W 074°09'1 0.6
2016-Jan-14 10:33N 40°39' W 074°09'5 5.0
2016-Jan-14 09:33N 40°37' W 074°03'1111.4
2016-Jan-14 08:33N 40°29' W 073°53'28 8.6
2016-Jan-14 05:17N 40°01' W 073°43'1013.4
2016-Jan-14 04:33N 39°52' W 073°42'1312.8
2016-Jan-14 03:33N 39°39' W 073°41'  

Dump ship's entire track history